createdAt,value
2023-05-01T00:00:40.739Z,5.35
2023-05-01T00:05:42.437Z,5.22
2023-05-01T00:10:43.928Z,5.13
2023-05-01T00:15:45.478Z,5.06
2023-05-01T00:20:47.034Z,4.95
2023-05-01T00:25:49.586Z,4.90
2023-05-01T00:30:51.775Z,4.87
2023-05-01T00:35:53.360Z,4.85
2023-05-01T00:40:54.892Z,4.80
2023-05-01T00:45:56.546Z,4.75
2023-05-01T00:50:58.689Z,4.68
2023-05-01T00:56:00.992Z,4.62
2023-05-01T01:01:02.526Z,4.55
2023-05-01T01:06:36.687Z,4.49
2023-05-01T01:12:01.295Z,4.35
2023-05-01T01:17:21.022Z,4.26
2023-05-01T01:22:25.388Z,4.23
2023-05-01T01:27:41.904Z,4.19
2023-05-01T01:33:03.299Z,4.12
2023-05-01T01:38:09.739Z,4.05
2023-05-01T01:43:16.761Z,3.93
2023-05-01T01:48:24.457Z,3.80
2023-05-01T01:53:29.590Z,3.70
2023-05-01T01:58:32.195Z,3.67
2023-05-01T02:03:35.066Z,3.71
2023-05-01T02:08:37.859Z,3.67
2023-05-01T02:13:41.000Z,3.59
2023-05-01T02:18:45.489Z,3.48
2023-05-01T02:23:47.106Z,3.37
2023-05-01T02:28:48.596Z,3.26
2023-05-01T02:33:50.353Z,3.18
2023-05-01T02:38:52.063Z,3.08
2023-05-01T02:44:00.594Z,3.00
2023-05-01T02:49:03.357Z,2.93
2023-05-01T02:54:05.221Z,2.82
2023-05-01T02:59:07.123Z,2.72
2023-05-01T03:04:08.711Z,2.67
2023-05-01T03:09:10.443Z,2.64
2023-05-01T03:14:12.448Z,2.55
2023-05-01T03:19:14.114Z,2.51
2023-05-01T03:24:15.663Z,2.51
2023-05-01T03:29:17.143Z,2.58
2023-05-01T03:34:18.597Z,2.60
2023-05-01T03:39:20.140Z,2.97
2023-05-01T03:44:21.841Z,3.43
2023-05-01T03:49:23.689Z,3.54
2023-05-01T03:54:25.923Z,3.58
2023-05-01T03:59:27.591Z,3.59
2023-05-01T04:04:30.178Z,3.64
2023-05-01T04:09:31.831Z,3.71
2023-05-01T04:14:33.379Z,3.78
2023-05-01T04:19:35.155Z,3.89
2023-05-01T04:24:36.718Z,4.03
2023-05-01T04:29:38.266Z,4.19
2023-05-01T04:34:39.733Z,4.38
2023-05-01T04:39:41.302Z,4.62
2023-05-01T04:44:43.041Z,4.84
2023-05-01T04:49:44.496Z,5.06
2023-05-01T04:54:45.984Z,5.29
2023-05-01T04:59:48.396Z,5.55
2023-05-01T05:04:51.161Z,5.75
2023-05-01T05:09:52.797Z,5.94
2023-05-01T05:14:54.408Z,6.10
2023-05-01T05:19:56.145Z,6.23
2023-05-01T05:25:04.125Z,6.34
2023-05-01T05:30:07.141Z,6.44
2023-05-01T05:35:08.964Z,6.55
2023-05-01T05:40:11.203Z,6.64
2023-05-01T05:45:12.745Z,6.75
2023-05-01T05:50:14.295Z,6.86
2023-05-01T05:55:16.058Z,6.97
2023-05-01T06:00:25.343Z,7.06
2023-05-01T06:05:27.853Z,7.18
2023-05-01T06:10:29.483Z,7.25
2023-05-01T06:15:31.226Z,7.33
2023-05-01T06:20:32.843Z,7.41
2023-05-01T06:25:34.321Z,7.45
2023-05-01T06:30:36.558Z,7.53
2023-05-01T06:35:39.846Z,7.59
2023-05-01T06:40:41.696Z,7.66
2023-05-01T06:45:43.419Z,7.69
2023-05-01T06:50:44.904Z,7.76
2023-05-01T06:55:46.410Z,7.84
2023-05-01T07:00:48.368Z,7.97
2023-05-01T07:05:50.112Z,8.15
2023-05-01T07:10:51.703Z,8.24
2023-05-01T07:15:54.670Z,8.30
2023-05-01T07:20:56.346Z,8.36
2023-05-01T07:25:57.882Z,8.49
2023-05-01T07:31:01.657Z,8.51
2023-05-01T07:36:04.657Z,8.57
2023-05-01T07:41:06.544Z,8.74
2023-05-01T07:46:08.168Z,8.88
2023-05-01T07:51:09.741Z,9.00
2023-05-01T07:56:11.297Z,9.02
2023-05-01T08:01:12.878Z,9.10
2023-05-01T08:06:14.732Z,9.21
2023-05-01T08:11:16.566Z,9.29
2023-05-01T08:16:21.918Z,9.41
2023-05-01T08:21:23.875Z,9.50
2023-05-01T08:26:25.585Z,9.66
2023-05-01T08:31:27.148Z,9.76
2023-05-01T08:36:28.739Z,9.82
2023-05-01T08:41:32.566Z,9.93
2023-05-01T08:46:46.818Z,9.94
2023-05-01T08:51:52.972Z,10.01
2023-05-01T08:56:56.837Z,10.13
2023-05-01T09:02:01.929Z,10.15
2023-05-01T09:07:04.212Z,10.28
2023-05-01T09:12:18.690Z,10.31
2023-05-01T09:17:24.413Z,10.48
2023-05-01T09:22:26.351Z,10.64
2023-05-01T09:27:28.419Z,10.67
2023-05-01T09:32:30.071Z,10.77
2023-05-01T09:37:33.829Z,10.87
2023-05-01T09:42:56.270Z,10.95
2023-05-01T09:48:11.828Z,11.04
2023-05-01T09:53:13.943Z,11.09
2023-05-01T09:58:28.312Z,11.20
2023-05-01T10:03:30.629Z,11.41
2023-05-01T10:08:49.481Z,11.55
2023-05-01T10:14:11.020Z,11.65
2023-05-01T10:19:13.391Z,11.72
2023-05-01T10:24:17.104Z,11.81
2023-05-01T10:29:23.426Z,11.93
2023-05-01T10:34:28.397Z,12.01
2023-05-01T10:39:34.853Z,12.15
2023-05-01T10:44:37.264Z,12.19
2023-05-01T10:50:04.640Z,12.30
2023-05-01T10:55:36.673Z,12.43
2023-05-01T11:00:41.581Z,12.55
2023-05-01T11:06:04.791Z,12.57
2023-05-01T11:11:22.776Z,12.68
2023-05-01T11:16:39.961Z,12.94
2023-05-01T11:21:42.163Z,13.05
2023-05-01T11:26:44.551Z,13.09
2023-05-01T11:31:48.718Z,13.21
2023-05-01T11:36:51.789Z,13.32
2023-05-01T11:42:06.685Z,13.48
2023-05-01T11:47:09.158Z,13.69
2023-05-01T11:52:10.711Z,13.82
2023-05-01T11:57:12.493Z,13.92
2023-05-01T12:02:21.068Z,13.96
2023-05-01T12:07:23.913Z,14.15
2023-05-01T12:12:25.449Z,14.33
2023-05-01T12:17:28.358Z,14.39
2023-05-01T12:22:30.385Z,14.49
2023-05-01T12:27:33.052Z,14.76
2023-05-01T12:32:34.928Z,14.94
2023-05-01T12:37:36.997Z,15.02
2023-05-01T12:42:38.866Z,15.01
2023-05-01T12:47:40.784Z,15.07
2023-05-01T12:52:42.941Z,15.41
2023-05-01T12:57:54.846Z,15.53
2023-05-01T13:03:04.409Z,15.58
2023-05-01T13:08:06.179Z,15.76
2023-05-01T13:13:07.786Z,15.77
2023-05-01T13:18:09.326Z,15.90
2023-05-01T13:23:13.036Z,16.05
2023-05-01T13:28:19.678Z,16.11
2023-05-01T13:33:21.611Z,16.23
2023-05-01T13:38:25.050Z,16.42
2023-05-01T13:43:26.949Z,16.60
2023-05-01T13:48:31.072Z,16.71
2023-05-01T13:53:32.982Z,16.95
2023-05-01T13:58:35.058Z,17.16
2023-05-01T14:03:41.983Z,17.36
2023-05-01T14:08:44.839Z,17.44
2023-05-01T14:13:48.579Z,17.50
2023-05-01T14:18:50.633Z,17.66
2023-05-01T14:23:53.101Z,17.84
2023-05-01T14:28:54.623Z,17.98
2023-05-01T14:33:58.889Z,17.97
2023-05-01T14:39:01.933Z,18.06
2023-05-01T14:44:11.179Z,18.20
2023-05-01T14:49:19.234Z,18.34
2023-05-01T14:54:21.380Z,18.45
2023-05-01T14:59:24.564Z,18.56
2023-05-01T15:04:26.226Z,18.59
2023-05-01T15:09:27.902Z,18.62
2023-05-01T15:14:29.567Z,18.73
2023-05-01T15:19:31.033Z,18.82
2023-05-01T15:24:32.604Z,18.83
2023-05-01T15:29:35.249Z,18.76
2023-05-01T15:34:37.036Z,18.75
2023-05-01T15:39:38.803Z,18.83
2023-05-01T15:44:40.271Z,18.89
2023-05-01T15:49:41.802Z,19.05
2023-05-01T15:54:47.399Z,19.12
2023-05-01T15:59:53.896Z,19.11
2023-05-01T16:04:55.448Z,19.10
2023-05-01T16:09:57.992Z,19.16
2023-05-01T16:15:03.425Z,19.23
2023-05-01T16:20:13.367Z,19.23
2023-05-01T16:25:14.898Z,19.22
2023-05-01T16:30:18.819Z,19.05
2023-05-01T16:35:27.378Z,19.01
2023-05-01T16:40:29.635Z,18.94
2023-05-01T16:45:32.163Z,18.83
2023-05-01T16:50:34.138Z,18.62
2023-05-01T16:55:35.674Z,18.29
2023-05-01T17:00:37.189Z,18.08
2023-05-01T17:05:38.890Z,17.92
2023-05-01T17:10:40.612Z,17.57
2023-05-01T17:15:42.250Z,17.19
2023-05-01T17:20:44.045Z,16.76
2023-05-01T17:25:45.759Z,16.39
2023-05-01T17:30:47.267Z,16.03
2023-05-01T17:35:49.467Z,15.73
2023-05-01T17:40:51.136Z,15.46
2023-05-01T17:45:52.720Z,15.13
2023-05-01T17:50:55.722Z,14.87
2023-05-01T17:55:57.110Z,14.62
2023-05-01T18:00:59.104Z,14.37
2023-05-01T18:06:02.243Z,14.14
2023-05-01T18:11:03.969Z,13.90
2023-05-01T18:16:05.907Z,13.67
2023-05-01T18:21:07.684Z,13.48
2023-05-01T18:26:09.171Z,13.31
2023-05-01T18:31:10.725Z,13.15
2023-05-01T18:36:12.306Z,12.99
2023-05-01T18:41:13.812Z,12.86
2023-05-01T18:46:16.014Z,12.74
2023-05-01T18:51:17.682Z,12.62
2023-05-01T18:56:19.266Z,12.49
2023-05-01T19:01:21.518Z,12.36
2023-05-01T19:06:23.134Z,12.26
2023-05-01T19:11:30.263Z,12.17
2023-05-01T19:16:31.826Z,12.05
2023-05-01T19:21:33.600Z,11.96
2023-05-01T19:26:35.087Z,11.86
2023-05-01T19:31:36.600Z,11.75
2023-05-01T19:36:38.213Z,11.65
2023-05-01T19:41:41.341Z,11.54
2023-05-01T19:46:45.521Z,11.46
2023-05-01T19:51:47.630Z,11.38
2023-05-01T19:56:51.837Z,11.29
2023-05-01T20:01:53.883Z,11.20
2023-05-01T20:06:55.799Z,11.11
2023-05-01T20:11:57.476Z,11.02
2023-05-01T20:16:59.295Z,10.94
2023-05-01T20:22:01.054Z,10.85
2023-05-01T20:27:05.803Z,10.77
2023-05-01T20:32:07.299Z,10.70
2023-05-01T20:37:09.016Z,10.63
2023-05-01T20:42:10.668Z,10.57
2023-05-01T20:47:13.919Z,10.51
2023-05-01T20:52:15.410Z,10.44
2023-05-01T20:57:17.065Z,10.37
2023-05-01T21:02:18.658Z,10.28
2023-05-01T21:07:20.286Z,10.18
2023-05-01T21:12:22.122Z,10.07
2023-05-01T21:17:23.954Z,9.97
2023-05-01T21:22:26.003Z,9.87
2023-05-01T21:27:28.230Z,9.77
2023-05-01T21:32:32.424Z,9.67
2023-05-01T21:37:34.096Z,9.59
2023-05-01T21:42:39.208Z,9.50
2023-05-01T21:47:44.274Z,9.43
2023-05-01T21:52:47.740Z,9.37
2023-05-01T21:57:53.322Z,9.32
2023-05-01T22:02:55.866Z,9.26
2023-05-01T22:07:57.720Z,9.20
2023-05-01T22:12:59.296Z,9.13
2023-05-01T22:18:00.828Z,9.06
2023-05-01T22:23:02.442Z,9.00
2023-05-01T22:28:05.681Z,8.94
2023-05-01T22:33:07.199Z,8.89
2023-05-01T22:38:08.763Z,8.82
2023-05-01T22:43:10.490Z,8.77
2023-05-01T22:48:12.046Z,8.74
2023-05-01T22:53:13.720Z,8.71
2023-05-01T22:58:15.508Z,8.69
2023-05-01T23:03:17.137Z,8.66
2023-05-01T23:08:18.835Z,8.63
2023-05-01T23:13:23.578Z,8.62
2023-05-01T23:18:31.083Z,8.59
2023-05-01T23:23:35.758Z,8.54
2023-05-01T23:28:44.461Z,8.48
2023-05-01T23:33:46.256Z,8.44
2023-05-01T23:38:47.916Z,8.42
2023-05-01T23:43:49.411Z,8.40
2023-05-01T23:48:51.041Z,8.37
2023-05-01T23:53:52.552Z,8.35
2023-05-01T23:58:54.075Z,8.34
